Time;durP1;ratioP1;P1;durP2;ratioP2;P2;SDS_P1;SDS_P2;PMS_P1;PMS_P2;Temp;Humidity;BMP_temperature;BMP_pressure;BME280_temperature;BME280_humidity;BME280_pressure;Samples;Min_cycle;Max_cycle;Signal;HPM_P1;HPM_P2
2022/06/29 00:01:54;;;;;;;;;;;26.70;49.70;;;;;;1563377;74;720;-60
2022/06/29 00:03:56;;;;;;;;;;;26.70;49.60;;;;;;1565828;74;728;-57
2022/06/29 00:05:58;;;;;;;;;;;26.70;49.70;;;;;;1567428;74;1964;-57
2022/06/29 00:08:00;;;;;;;;;;;26.70;49.70;;;;;;1564368;74;1383;-57
2022/06/29 00:10:02;;;;;;;;;;;26.70;49.70;;;;;;1567914;74;1067;-57
2022/06/29 00:12:04;;;;;;;;;;;26.70;49.70;;;;;;1567802;74;712;-60
2022/06/29 00:14:06;;;;;;;;;;;26.70;49.70;;;;;;1564514;74;821;-57
2022/06/29 00:16:07;;;;;;;;;;;26.70;49.70;;;;;;1565231;74;1138;-57
2022/06/29 00:18:09;;;;;;;;;;;26.70;49.70;;;;;;1564679;74;700;-59
2022/06/29 00:20:12;;;;;;;;;;;26.70;49.70;;;;;;1550172;74;732;-58
2022/06/29 00:22:15;;;;;;;;;;;26.70;49.70;;;;;;1556463;74;1540;-58
2022/06/29 00:24:17;;;;;;;;;;;26.60;49.80;;;;;;1560723;74;705;-60
2022/06/29 00:26:19;;;;;;;;;;;26.70;49.70;;;;;;1560273;74;1939;-59
2022/06/29 00:28:23;;;;;;;;;;;26.60;49.70;;;;;;1566749;74;701;-59
2022/06/29 00:30:25;;;;;;;;;;;26.70;49.80;;;;;;1552271;74;678;-59
2022/06/29 00:32:27;;;;;;;;;;;26.70;49.80;;;;;;1558036;74;953;-59
2022/06/29 00:34:30;;;;;;;;;;;26.60;49.80;;;;;;1549218;74;718;-60
2022/06/29 00:36:32;;;;;;;;;;;26.60;49.80;;;;;;1547652;74;1433;-60
2022/06/29 00:38:33;;;;;;;;;;;26.60;49.80;;;;;;1546648;74;694;-57
2022/06/29 00:40:35;;;;;;;;;;;26.70;49.80;;;;;;1557934;74;633;-59
2022/06/29 00:42:37;;;;;;;;;;;26.60;49.80;;;;;;1552819;74;691;-60
2022/06/29 00:44:39;;;;;;;;;;;26.60;49.80;;;;;;1564573;74;688;-57
2022/06/29 00:46:46;;;;;;;;;;;26.60;49.80;;;;;;1567826;74;1924;-60
2022/06/29 00:48:47;;;;;;;;;;;26.60;49.70;;;;;;1551329;75;2440;-58
2022/06/29 00:50:49;;;;;;;;;;;26.60;49.80;;;;;;1532190;75;1486;-58
2022/06/29 00:52:51;;;;;;;;;;;26.70;49.80;;;;;;1538834;75;708;-60
2022/06/29 00:54:57;;;;;;;;;;;26.70;49.80;;;;;;1533137;75;719;-58
2022/06/29 00:56:59;;;;;;;;;;;26.70;49.80;;;;;;1526656;75;1190;-57
2022/06/29 00:59:02;;;;;;;;;;;26.60;49.80;;;;;;1544103;75;742;-56
2022/06/29 01:01:04;;;;;;;;;;;26.70;49.80;;;;;;1546244;75;696;-57
2022/06/29 01:03:07;;;;;;;;;;;26.70;49.80;;;;;;1533756;75;799;-57
2022/06/29 01:05:09;;;;;;;;;;;26.70;49.70;;;;;;1548308;75;1515;-59
2022/06/29 01:07:15;;;;;;;;;;;26.70;49.70;;;;;;1535122;75;1930;-60
2022/06/29 01:09:16;;;;;;;;;;;26.70;49.80;;;;;;1545445;75;701;-58
2022/06/29 01:11:18;;;;;;;;;;;26.70;49.80;;;;;;1552101;75;698;-59
2022/06/29 01:13:20;;;;;;;;;;;26.70;49.80;;;;;;1549724;75;704;-56
2022/06/29 01:15:22;;;;;;;;;;;26.70;49.80;;;;;;1542869;75;638;-57
2022/06/29 01:17:24;;;;;;;;;;;26.70;49.70;;;;;;1538783;75;1175;-58
2022/06/29 01:19:26;;;;;;;;;;;26.70;49.80;;;;;;1569335;72;229410;-66
2022/06/29 01:21:28;;;;;;;;;;;26.60;49.80;;;;;;1561343;74;668;-66
2022/06/29 01:23:30;;;;;;;;;;;26.70;49.70;;;;;;1555099;74;669;-68
2022/06/29 01:25:31;;;;;;;;;;;26.70;49.70;;;;;;1552671;74;625;-67
2022/06/29 01:27:33;;;;;;;;;;;26.70;49.70;;;;;;1552338;74;1931;-67
2022/06/29 01:29:35;;;;;;;;;;;26.70;49.70;;;;;;1555868;74;1173;-67
2022/06/29 01:31:37;;;;;;;;;;;26.70;49.70;;;;;;1562249;74;658;-66
2022/06/29 01:33:39;;;;;;;;;;;26.70;49.80;;;;;;1547029;74;1597;-65
2022/06/29 01:35:41;;;;;;;;;;;26.70;49.80;;;;;;1562493;74;712;-64
2022/06/29 01:37:43;;;;;;;;;;;26.70;49.70;;;;;;1556374;75;1106;-63
2022/06/29 01:39:45;;;;;;;;;;;26.70;49.70;;;;;;1555650;75;705;-66
2022/06/29 01:41:46;;;;;;;;;;;26.70;49.70;;;;;;1553751;74;588;-63
2022/06/29 01:43:48;;;;;;;;;;;26.70;49.60;;;;;;1549020;74;690;-66
2022/06/29 01:45:50;;;;;;;;;;;26.70;49.70;;;;;;1555086;75;1506;-66
2022/06/29 01:47:52;;;;;;;;;;;26.70;49.70;;;;;;1556675;74;1924;-65
2022/06/29 01:49:54;;;;;;;;;;;26.70;49.70;;;;;;1563134;74;704;-66
2022/06/29 01:51:56;;;;;;;;;;;26.70;49.70;;;;;;1561864;74;622;-66
2022/06/29 01:53:58;;;;;;;;;;;26.70;49.80;;;;;;1563345;76;689;-66
2022/06/29 01:56:00;;;;;;;;;;;26.70;49.70;;;;;;1562549;74;656;-66
2022/06/29 01:58:02;;;;;;;;;;;26.70;49.70;;;;;;1543269;74;1145;-66
2022/06/29 02:00:04;;;;;;;;;;;26.70;49.70;;;;;;1559320;74;1561;-65
2022/06/29 02:02:07;;;;;;;;;;;26.70;49.80;;;;;;1561893;74;909;-67
2022/06/29 02:04:09;;;;;;;;;;;26.70;49.70;;;;;;1562473;74;669;-66
2022/06/29 02:06:11;;;;;;;;;;;26.70;49.70;;;;;;1562384;74;709;-67
2022/06/29 02:08:13;;;;;;;;;;;26.70;49.80;;;;;;1563115;74;1929;-66
2022/06/29 02:10:15;;;;;;;;;;;26.70;49.70;;;;;;1562682;76;719;-65
2022/06/29 02:12:17;;;;;;;;;;;26.70;49.70;;;;;;1562416;74;688;-66
2022/06/29 02:14:19;;;;;;;;;;;26.70;49.70;;;;;;1555771;74;1493;-66
2022/06/29 02:16:21;;;;;;;;;;;26.70;49.60;;;;;;1562942;74;645;-67
2022/06/29 02:18:23;;;;;;;;;;;26.70;49.60;;;;;;1560861;74;1134;-65
2022/06/29 02:20:24;;;;;;;;;;;26.70;49.50;;;;;;1548898;74;686;-67
2022/06/29 02:22:26;;;;;;;;;;;26.70;49.60;;;;;;1553677;75;641;-65
2022/06/29 02:24:28;;;;;;;;;;;26.70;49.70;;;;;;1567207;75;660;-66
2022/06/29 02:26:30;;;;;;;;;;;26.70;49.60;;;;;;1557316;75;658;-66
2022/06/29 02:28:32;;;;;;;;;;;26.70;49.70;;;;;;1562889;74;1927;-66
2022/06/29 02:35:13;;;;;;;;;;;26.70;49.60;;;;;;1553899;75;1659;-67
2022/06/29 02:37:15;;;;;;;;;;;26.60;49.60;;;;;;1558474;74;712;-67
2022/06/29 02:39:17;;;;;;;;;;;26.70;49.60;;;;;;1559481;75;1129;-66
2022/06/29 02:41:19;;;;;;;;;;;26.70;49.60;;;;;;1555000;76;578;-67
2022/06/29 02:43:21;;;;;;;;;;;26.60;49.50;;;;;;1530520;76;1387;-68
2022/06/29 02:45:23;;;;;;;;;;;26.60;49.50;;;;;;1557011;74;772;-66
2022/06/29 02:47:25;;;;;;;;;;;26.70;49.60;;;;;;1533743;75;1929;-65
2022/06/29 02:49:27;;;;;;;;;;;26.70;49.70;;;;;;1557010;74;1130;-66
2022/06/29 02:51:29;;;;;;;;;;;26.70;49.70;;;;;;1563887;74;598;-66
2022/06/29 02:53:30;;;;;;;;;;;26.70;49.70;;;;;;1558459;74;685;-65
2022/06/29 02:55:32;;;;;;;;;;;26.70;49.70;;;;;;1550643;74;652;-65
2022/06/29 02:57:34;;;;;;;;;;;26.70;49.70;;;;;;1566334;76;1493;-66
2022/06/29 02:59:36;;;;;;;;;;;26.70;49.50;;;;;;1566244;74;1110;-68
2022/06/29 03:01:38;;;;;;;;;;;26.70;49.60;;;;;;1566479;76;617;-66
2022/06/29 03:03:40;;;;;;;;;;;26.70;49.50;;;;;;1564270;74;750;-66
2022/06/29 03:05:42;;;;;;;;;;;26.70;49.50;;;;;;1555455;74;713;-64
2022/06/29 03:07:44;;;;;;;;;;;26.70;49.60;;;;;;1560192;74;1928;-66
2022/06/29 03:09:46;;;;;;;;;;;26.70;49.50;;;;;;1562181;74;672;-65
2022/06/29 03:11:48;;;;;;;;;;;26.70;49.60;;;;;;1565369;74;1570;-66
2022/06/29 03:13:49;;;;;;;;;;;26.70;49.50;;;;;;1560138;74;672;-66
2022/06/29 03:15:51;;;;;;;;;;;26.70;49.50;;;;;;1566461;74;598;-67
2022/06/29 03:17:54;;;;;;;;;;;26.70;49.50;;;;;;1566206;74;1148;-66
2022/06/29 03:19:55;;;;;;;;;;;26.70;49.40;;;;;;1558241;74;849;-66
2022/06/29 03:21:57;;;;;;;;;;;26.70;49.40;;;;;;1550651;74;700;-66
2022/06/29 03:23:59;;;;;;;;;;;26.70;49.40;;;;;;1566300;74;732;-66
2022/06/29 03:26:01;;;;;;;;;;;26.70;49.40;;;;;;1560425;74;1474;-65
2022/06/29 03:28:03;;;;;;;;;;;26.70;49.40;;;;;;1566393;74;1930;-66
2022/06/29 03:30:05;;;;;;;;;;;26.70;49.40;;;;;;1566458;74;697;-66
2022/06/29 03:32:08;;;;;;;;;;;26.70;49.40;;;;;;1566670;75;757;-66
2022/06/29 03:34:09;;;;;;;;;;;26.70;49.40;;;;;;1559097;74;682;-66
2022/06/29 03:36:11;;;;;;;;;;;26.70;49.40;;;;;;1560508;74;717;-65
2022/06/29 03:38:13;;;;;;;;;;;26.70;49.40;;;;;;1562937;74;1152;-66
2022/06/29 03:40:15;;;;;;;;;;;26.70;49.40;;;;;;1563834;74;1766;-65
2022/06/29 03:42:17;;;;;;;;;;;26.70;49.40;;;;;;1558603;74;691;-65
2022/06/29 03:44:19;;;;;;;;;;;26.70;49.40;;;;;;1561234;74;711;-66
2022/06/29 03:46:21;;;;;;;;;;;26.70;49.40;;;;;;1566828;74;640;-65
2022/06/29 03:48:23;;;;;;;;;;;26.70;49.30;;;;;;1566367;74;1923;-66
2022/06/29 03:50:24;;;;;;;;;;;26.70;49.40;;;;;;1565767;74;697;-66
2022/06/29 03:52:26;;;;;;;;;;;26.70;49.40;;;;;;1565407;74;1501;-67
2022/06/29 03:54:28;;;;;;;;;;;26.70;49.40;;;;;;1566006;74;729;-65
2022/06/29 03:56:30;;;;;;;;;;;26.70;49.30;;;;;;1565784;74;664;-65
2022/06/29 03:58:32;;;;;;;;;;;26.70;49.40;;;;;;1561427;74;1142;-64
2022/06/29 04:00:34;;;;;;;;;;;26.80;49.40;;;;;;1560252;74;724;-65
2022/06/29 04:02:36;;;;;;;;;;;26.70;49.40;;;;;;1558926;74;718;-67
2022/06/29 04:04:38;;;;;;;;;;;26.80;49.40;;;;;;1559850;74;593;-66
2022/06/29 04:06:40;;;;;;;;;;;26.80;49.40;;;;;;1560232;74;1560;-66
2022/06/29 04:08:42;;;;;;;;;;;26.70;49.30;;;;;;1560926;74;1955;-66
2022/06/29 04:10:44;;;;;;;;;;;26.70;49.30;;;;;;1565375;76;815;-66
2022/06/29 04:12:46;;;;;;;;;;;26.80;49.30;;;;;;1563043;74;711;-66
2022/06/29 04:14:48;;;;;;;;;;;26.80;49.30;;;;;;1572096;74;720;-66
2022/06/29 04:16:51;;;;;;;;;;;26.70;49.30;;;;;;1566378;74;703;-68
2022/06/29 04:18:53;;;;;;;;;;;26.70;49.20;;;;;;1554071;74;1138;-66
2022/06/29 04:21:07;;;;;;;;;;;26.80;49.30;;;;;;1566137;74;1455;-67
2022/06/29 04:23:09;;;;;;;;;;;26.70;49.20;;;;;;1554149;74;786;-67
2022/06/29 04:25:10;;;;;;;;;;;26.70;49.20;;;;;;1573499;74;744;-66
2022/06/29 04:27:12;;;;;;;;;;;26.70;49.30;;;;;;1564770;74;692;-67
2022/06/29 04:29:14;;;;;;;;;;;26.70;49.30;;;;;;1566815;74;1928;-67
2022/06/29 04:31:16;;;;;;;;;;;26.70;49.30;;;;;;1556726;74;716;-66
2022/06/29 04:33:18;;;;;;;;;;;26.70;49.30;;;;;;1556264;74;687;-65
2022/06/29 04:35:21;;;;;;;;;;;26.90;49.30;;;;;;1559691;74;1477;-67
2022/06/29 04:37:22;;;;;;;;;;;26.80;49.30;;;;;;1558868;74;689;-65
2022/06/29 04:39:24;;;;;;;;;;;26.80;49.20;;;;;;1553928;74;1149;-66
2022/06/29 04:41:26;;;;;;;;;;;26.80;49.20;;;;;;1537498;76;661;-66
2022/06/29 04:43:29;;;;;;;;;;;26.80;49.20;;;;;;1533713;76;657;-63
2022/06/29 04:47:51;;;;;;;;;;;26.80;49.20;;;;;;1543928;74;1917;-66
2022/06/29 04:49:53;;;;;;;;;;;26.90;49.20;;;;;;1540868;74;1461;-67
2022/06/29 04:51:55;;;;;;;;;;;26.90;49.20;;;;;;1547495;74;657;-67
2022/06/29 04:53:57;;;;;;;;;;;26.80;49.20;;;;;;1542054;76;689;-67
2022/06/29 04:55:59;;;;;;;;;;;26.80;49.20;;;;;;1543096;74;712;-68
2022/06/29 04:58:01;;;;;;;;;;;26.80;49.20;;;;;;1549561;75;1138;-67
2022/06/29 05:00:03;;;;;;;;;;;26.80;49.30;;;;;;1544616;75;677;-65
2022/06/29 05:02:05;;;;;;;;;;;26.80;49.30;;;;;;1547027;74;639;-65
2022/06/29 05:04:07;;;;;;;;;;;26.90;49.20;;;;;;1552288;74;1505;-67
2022/06/29 05:06:09;;;;;;;;;;;26.90;49.00;;;;;;1558224;74;634;-67
2022/06/29 05:08:11;;;;;;;;;;;26.90;49.00;;;;;;1565108;73;1932;-67
2022/06/29 05:10:13;;;;;;;;;;;26.80;49.10;;;;;;1558539;74;616;-67
2022/06/29 05:12:14;;;;;;;;;;;26.80;49.10;;;;;;1557199;74;731;-68
2022/06/29 05:14:16;;;;;;;;;;;26.70;49.20;;;;;;1560711;74;704;-69
2022/06/29 05:16:19;;;;;;;;;;;26.80;49.10;;;;;;1559005;74;628;-66
2022/06/29 05:18:21;;;;;;;;;;;26.70;49.20;;;;;;1551830;74;1466;-67
2022/06/29 05:20:23;;;;;;;;;;;26.70;49.20;;;;;;1559740;74;713;-66
2022/06/29 05:22:25;;;;;;;;;;;26.70;49.30;;;;;;1546171;74;696;-68
2022/06/29 05:24:27;;;;;;;;;;;26.80;49.30;;;;;;1558898;74;682;-67
2022/06/29 05:26:29;;;;;;;;;;;26.80;49.20;;;;;;1558745;74;629;-69
2022/06/29 05:28:31;;;;;;;;;;;26.80;49.30;;;;;;1557717;74;1932;-66
2022/06/29 05:30:33;;;;;;;;;;;26.80;49.40;;;;;;1559741;76;716;-66
2022/06/29 05:32:35;;;;;;;;;;;26.80;49.20;;;;;;1552967;74;1368;-65
2022/06/29 05:34:37;;;;;;;;;;;26.80;49.10;;;;;;1548213;74;561;-65
2022/06/29 05:36:39;;;;;;;;;;;26.90;49.20;;;;;;1553285;74;757;-65
2022/06/29 05:38:41;;;;;;;;;;;26.90;49.40;;;;;;1563863;76;1103;-66
2022/06/29 05:40:44;;;;;;;;;;;26.90;49.40;;;;;;1564070;74;642;-67
2022/06/29 05:42:46;;;;;;;;;;;27.00;49.80;;;;;;1562641;74;629;-66
2022/06/29 05:44:47;;;;;;;;;;;27.00;49.60;;;;;;1564098;76;683;-66
2022/06/29 05:46:49;;;;;;;;;;;26.90;48.90;;;;;;1557680;74;1651;-66
2022/06/29 05:48:51;;;;;;;;;;;26.90;48.90;;;;;;1566264;74;1938;-69
2022/06/29 05:50:53;;;;;;;;;;;26.90;48.90;;;;;;1565752;74;680;-65
2022/06/29 05:52:55;;;;;;;;;;;26.90;49.00;;;;;;1565932;74;758;-65
2022/06/29 05:54:58;;;;;;;;;;;26.90;49.00;;;;;;1565397;74;757;-65
2022/06/29 05:57:00;;;;;;;;;;;26.80;49.00;;;;;;1566195;74;700;-66
2022/06/29 05:59:02;;;;;;;;;;;26.70;49.00;;;;;;1564819;76;1454;-67
2022/06/29 06:01:08;;;;;;;;;;;26.70;49.10;;;;;;1558237;74;647;-67
2022/06/29 06:03:07;;;;;;;;;;;26.70;49.00;;;;;;1566132;74;1640;-65
2022/06/29 06:05:09;;;;;;;;;;;26.70;49.10;;;;;;1556465;74;667;-66
2022/06/29 06:07:11;;;;;;;;;;;26.70;49.10;;;;;;1560689;74;612;-66
2022/06/29 06:09:13;;;;;;;;;;;26.80;49.10;;;;;;1557899;74;1939;-65
2022/06/29 06:11:15;;;;;;;;;;;26.70;49.00;;;;;;1564530;74;693;-67
2022/06/29 06:13:17;;;;;;;;;;;26.70;49.00;;;;;;1557262;74;1478;-65
2022/06/29 06:15:19;;;;;;;;;;;26.70;49.00;;;;;;1548745;74;657;-67
2022/06/29 06:17:21;;;;;;;;;;;26.70;49.00;;;;;;1560915;74;701;-66
2022/06/29 06:19:22;;;;;;;;;;;26.60;48.90;;;;;;1558310;74;1166;-66
2022/06/29 06:21:24;;;;;;;;;;;26.60;49.00;;;;;;1552817;74;790;-67
2022/06/29 06:23:26;;;;;;;;;;;26.60;49.00;;;;;;1556816;74;781;-66
2022/06/29 06:25:28;;;;;;;;;;;26.70;49.00;;;;;;1552556;74;778;-67
2022/06/29 06:27:30;;;;;;;;;;;26.70;49.00;;;;;;1553569;75;1453;-66
2022/06/29 06:29:32;;;;;;;;;;;26.60;49.00;;;;;;1556371;74;1924;-66
2022/06/29 06:31:34;;;;;;;;;;;26.60;49.00;;;;;;1551973;74;730;-67
2022/06/29 06:33:36;;;;;;;;;;;26.60;48.90;;;;;;1550706;74;682;-67
2022/06/29 06:35:38;;;;;;;;;;;26.60;49.10;;;;;;1546027;74;755;-68
2022/06/29 06:37:40;;;;;;;;;;;26.60;49.10;;;;;;1553444;74;605;-67
2022/06/29 06:41:21;;;;;;;;;;;26.70;49.10;;;;;;1553039;75;1149;-66
2022/06/29 06:41:45;;;;;;;;;;;26.60;49.10;;;;;;1549156;74;1456;-66
2022/06/29 06:43:47;;;;;;;;;;;26.70;49.10;;;;;;1548455;74;707;-67
2022/06/29 06:45:49;;;;;;;;;;;26.60;49.10;;;;;;1551814;74;674;-66
2022/06/29 06:47:51;;;;;;;;;;;26.60;49.10;;;;;;1553057;74;1152;-67
2022/06/29 06:49:53;;;;;;;;;;;26.70;49.10;;;;;;1534922;75;1943;-68
2022/06/29 06:51:55;;;;;;;;;;;26.60;49.10;;;;;;1556125;74;695;-66
2022/06/29 06:53:57;;;;;;;;;;;26.60;49.00;;;;;;1557920;74;681;-65
2022/06/29 06:55:59;;;;;;;;;;;26.70;49.20;;;;;;1560857;76;1472;-67
2022/06/29 06:58:01;;;;;;;;;;;26.60;49.10;;;;;;1566303;74;1144;-67
2022/06/29 07:00:04;;;;;;;;;;;26.60;49.00;;;;;;1555584;74;694;-67
2022/06/29 07:02:06;;;;;;;;;;;26.70;49.00;;;;;;1557519;74;639;-66
2022/06/29 07:04:08;;;;;;;;;;;26.70;49.00;;;;;;1563568;74;692;-67
2022/06/29 07:06:10;;;;;;;;;;;26.70;49.20;;;;;;1550786;74;701;-67
2022/06/29 07:08:11;;;;;;;;;;;26.60;49.10;;;;;;1563253;74;1177;-69
2022/06/29 07:10:13;;;;;;;;;;;26.60;49.00;;;;;;1554442;74;1938;-67
2022/06/29 07:12:15;;;;;;;;;;;26.60;49.10;;;;;;1561287;74;689;-67
2022/06/29 07:14:17;;;;;;;;;;;26.60;49.20;;;;;;1560270;74;683;-67
2022/06/29 07:16:19;;;;;;;;;;;26.60;49.10;;;;;;1549001;74;740;-68
2022/06/29 07:18:21;;;;;;;;;;;26.70;49.10;;;;;;1562484;73;3100;-71
2022/06/29 07:20:28;;;;;;;;;;;26.70;49.10;;;;;;1552586;75;548;-73
2022/06/29 07:22:26;;;;;;;;;;;26.50;49.10;;;;;;1553207;75;1569;-74
2022/06/29 07:24:28;;;;;;;;;;;26.60;49.10;;;;;;1551947;75;1523;-70
2022/06/29 07:26:30;;;;;;;;;;;26.50;49.10;;;;;;1543395;75;758;-72
2022/06/29 07:28:32;;;;;;;;;;;26.60;49.10;;;;;;1552102;75;1310;-70
2022/06/29 07:30:34;;;;;;;;;;;26.50;49.00;;;;;;1511055;76;1929;-69
2022/06/29 07:32:36;;;;;;;;;;;26.60;49.00;;;;;;1524043;76;740;-75
2022/06/29 07:34:38;;;;;;;;;;;26.60;49.00;;;;;;1525452;76;666;-72
2022/06/29 07:36:39;;;;;;;;;;;26.50;49.00;;;;;;1526539;76;680;-73
2022/06/29 07:38:41;;;;;;;;;;;26.60;49.10;;;;;;1529171;76;1528;-71
2022/06/29 07:40:43;;;;;;;;;;;26.60;49.00;;;;;;1530327;76;692;-72
2022/06/29 07:42:45;;;;;;;;;;;26.50;49.00;;;;;;1529253;77;653;-72
2022/06/29 07:44:47;;;;;;;;;;;26.50;49.00;;;;;;1528866;77;655;-71
2022/06/29 07:46:49;;;;;;;;;;;26.50;49.10;;;;;;1525026;77;681;-73
2022/06/29 07:48:51;;;;;;;;;;;26.60;49.00;;;;;;1525997;76;1968;-71
2022/06/29 07:50:53;;;;;;;;;;;26.60;49.00;;;;;;1528112;77;772;-72
2022/06/29 07:52:55;;;;;;;;;;;26.50;48.90;;;;;;1523394;77;1591;-72
2022/06/29 07:54:57;;;;;;;;;;;26.60;48.90;;;;;;1511925;76;740;-72
2022/06/29 07:56:59;;;;;;;;;;;26.50;48.90;;;;;;1528709;77;673;-71
2022/06/29 07:59:01;;;;;;;;;;;26.60;48.80;;;;;;1520965;76;1142;-71
2022/06/29 08:01:03;;;;;;;;;;;26.50;48.80;;;;;;1525678;77;720;-71
2022/06/29 08:03:05;;;;;;;;;;;26.50;48.80;;;;;;1526446;76;815;-73
2022/06/29 08:05:08;;;;;;;;;;;26.50;48.70;;;;;;1524750;77;697;-70
2022/06/29 08:07:09;;;;;;;;;;;26.50;48.80;;;;;;1520096;76;1568;-72
2022/06/29 08:09:11;;;;;;;;;;;26.50;48.80;;;;;;1525406;76;1970;-70
2022/06/29 08:11:13;;;;;;;;;;;26.40;48.90;;;;;;1511582;76;725;-71
2022/06/29 08:13:15;;;;;;;;;;;26.50;49.00;;;;;;1521353;76;688;-73
2022/06/29 08:15:17;;;;;;;;;;;26.50;49.00;;;;;;1533823;76;634;-72
2022/06/29 08:17:19;;;;;;;;;;;26.50;49.00;;;;;;1518102;76;698;-75
2022/06/29 08:19:21;;;;;;;;;;;26.50;49.00;;;;;;1525464;76;1212;-75
2022/06/29 08:21:23;;;;;;;;;;;26.50;49.00;;;;;;1524130;76;1595;-70
2022/06/29 08:23:25;;;;;;;;;;;26.50;48.90;;;;;;1519948;76;838;-70
2022/06/29 08:25:26;;;;;;;;;;;26.40;48.90;;;;;;1523527;76;763;-70
2022/06/29 08:27:30;;;;;;;;;;;26.40;48.90;;;;;;1523064;76;673;-72
2022/06/29 08:29:32;;;;;;;;;;;26.50;48.90;;;;;;1531822;76;1939;-71
2022/06/29 08:31:34;;;;;;;;;;;26.50;49.00;;;;;;1527101;76;789;-70
2022/06/29 08:33:36;;;;;;;;;;;26.40;49.00;;;;;;1520669;77;1590;-71
2022/06/29 08:35:38;;;;;;;;;;;26.40;49.00;;;;;;1516860;76;786;-73
2022/06/29 08:37:40;;;;;;;;;;;26.40;49.00;;;;;;1527796;76;699;-71
2022/06/29 08:39:42;;;;;;;;;;;26.50;49.00;;;;;;1524299;76;1120;-72
2022/06/29 08:41:43;;;;;;;;;;;26.40;48.90;;;;;;1514215;76;673;-73
2022/06/29 08:43:45;;;;;;;;;;;26.40;48.90;;;;;;1522291;76;679;-72
2022/06/29 08:45:48;;;;;;;;;;;26.40;48.90;;;;;;1532149;76;813;-73
2022/06/29 08:47:50;;;;;;;;;;;26.40;48.90;;;;;;1521381;76;1568;-74
2022/06/29 08:49:52;;;;;;;;;;;26.30;48.90;;;;;;1521956;76;1964;-72
2022/06/29 08:51:54;;;;;;;;;;;26.40;48.80;;;;;;1524118;77;750;-73
2022/06/29 08:53:56;;;;;;;;;;;26.40;48.80;;;;;;1518432;76;790;-73
2022/06/29 08:55:58;;;;;;;;;;;26.40;48.80;;;;;;1525777;76;707;-71
2022/06/29 08:58:00;;;;;;;;;;;26.40;48.80;;;;;;1522747;76;748;-72
2022/06/29 09:00:02;;;;;;;;;;;26.40;48.80;;;;;;1530298;76;1142;-72
2022/06/29 09:02:04;;;;;;;;;;;26.40;48.80;;;;;;1524424;76;1578;-73
2022/06/29 09:04:07;;;;;;;;;;;26.50;48.70;;;;;;1524909;76;777;-72
2022/06/29 09:06:09;;;;;;;;;;;26.40;48.70;;;;;;1520500;76;689;-72
2022/06/29 09:08:11;;;;;;;;;;;26.30;48.60;;;;;;1517490;75;1141;-73
2022/06/29 09:10:14;;;;;;;;;;;26.30;48.60;;;;;;1523349;76;1934;-75
2022/06/29 09:12:19;;;;;;;;;;;26.30;48.60;;;;;;1523980;76;2208;-73
2022/06/29 09:14:22;;;;;;;;;;;26.40;48.60;;;;;;1519870;76;802;-72
2022/06/29 09:16:24;;;;;;;;;;;26.40;48.60;;;;;;1527987;76;1571;-69
2022/06/29 09:18:27;;;;;;;;;;;26.40;48.50;;;;;;1525776;76;1163;-70
2022/06/29 09:20:42;;;;;;;;;;;26.40;48.40;;;;;;1522692;76;1812;-70
2022/06/29 09:22:46;;;;;;;;;;;26.30;48.50;;;;;;1521732;76;712;-69
2022/06/29 09:24:48;;;;;;;;;;;26.30;48.60;;;;;;1524681;76;1913;-69
2022/06/29 09:26:56;;;;;;;;;;;26.30;48.60;;;;;;1520835;76;724;-68
2022/06/29 09:28:58;;;;;;;;;;;26.30;48.60;;;;;;1522374;76;1205;-70
2022/06/29 09:31:01;;;;;;;;;;;26.30;48.60;;;;;;1527360;76;1945;-70
2022/06/29 09:33:06;;;;;;;;;;;26.30;48.60;;;;;;1522520;76;712;-71
2022/06/29 09:35:10;;;;;;;;;;;26.30;48.60;;;;;;1524134;76;711;-72
2022/06/29 09:37:13;;;;;;;;;;;26.30;48.60;;;;;;1524234;76;1128;-72
2022/06/29 09:39:16;;;;;;;;;;;26.30;48.70;;;;;;1521447;76;1074;-72
2022/06/29 09:41:18;;;;;;;;;;;26.30;48.70;;;;;;1526642;76;1918;-71
2022/06/29 09:43:20;;;;;;;;;;;26.30;48.70;;;;;;1523285;76;903;-70
2022/06/29 09:45:22;;;;;;;;;;;26.30;48.70;;;;;;1520743;76;1373;-72
2022/06/29 09:47:24;;;;;;;;;;;26.30;48.70;;;;;;1518048;76;635;-68
2022/06/29 09:49:27;;;;;;;;;;;26.30;48.70;;;;;;1526229;76;1126;-71
2022/06/29 09:51:32;;;;;;;;;;;26.40;48.70;;;;;;1516534;76;1914;-67
2022/06/29 09:53:39;;;;;;;;;;;26.30;48.90;;;;;;1528555;76;879;-70
2022/06/29 09:55:41;;;;;;;;;;;26.50;48.90;;;;;;1529764;76;708;-65
2022/06/29 09:57:42;;;;;;;;;;;26.60;48.90;;;;;;1522026;76;817;-65
2022/06/29 10:04:35;;;;;;;;;;;26.60;48.70;;;;;;1521932;76;1662;-69
2022/06/29 10:06:37;;;;;;;;;;;26.60;48.80;;;;;;1518853;76;631;-70
2022/06/29 10:08:39;;;;;;;;;;;26.60;48.80;;;;;;1523291;76;1091;-69
2022/06/29 10:10:41;;;;;;;;;;;26.50;48.80;;;;;;1518509;76;1938;-73
2022/06/29 10:15:27;;;;;;;;;;;26.50;48.70;;;;;;1519217;76;1639;-69
2022/06/29 10:17:34;;;;;;;;;;;26.50;48.80;;;;;;1523914;76;721;-69
2022/06/29 10:19:43;;;;;;;;;;;26.40;48.80;;;;;;1521350;76;1893;-71
2022/06/29 10:21:45;;;;;;;;;;;26.40;48.80;;;;;;1521329;77;2005;-70
2022/06/29 10:23:47;;;;;;;;;;;26.50;48.70;;;;;;1522447;77;870;-71
2022/06/29 10:25:49;;;;;;;;;;;26.50;48.70;;;;;;1522462;76;768;-69
2022/06/29 10:30:30;;;;;;;;;;;26.40;48.70;;;;;;1516809;77;1899;-57
2022/06/29 10:32:34;;;;;;;;;;;26.40;48.70;;;;;;1514906;77;718;-58
2022/06/29 10:35:06;;;;;;;;;;;26.40;48.60;;;;;;1518510;77;1553;-57
2022/06/29 10:37:02;;;;;;;;;;;26.50;48.60;;;;;;1512381;77;1501;-59
2022/06/29 10:39:05;;;;;;;;;;;26.40;48.60;;;;;;1517679;77;2074;-56
2022/06/29 10:41:09;;;;;;;;;;;26.40;48.50;;;;;;1514143;77;1580;-57
2022/06/29 10:43:15;;;;;;;;;;;26.40;48.50;;;;;;1517797;77;721;-56
2022/06/29 10:45:16;;;;;;;;;;;26.40;48.50;;;;;;1516805;77;1736;-56
2022/06/29 10:47:22;;;;;;;;;;;26.40;48.50;;;;;;1517728;77;1161;-57
2022/06/29 10:49:24;;;;;;;;;;;26.40;48.60;;;;;;1519013;77;1216;-57
2022/06/29 10:51:26;;;;;;;;;;;26.40;48.60;;;;;;1516366;76;1948;-57
2022/06/29 10:53:28;;;;;;;;;;;26.30;48.60;;;;;;1514305;77;694;-55
2022/06/29 10:55:30;;;;;;;;;;;26.40;48.60;;;;;;1517672;77;1569;-57
2022/06/29 10:57:33;;;;;;;;;;;26.50;48.70;;;;;;1517594;77;1140;-58
2022/06/29 10:59:35;;;;;;;;;;;26.40;48.70;;;;;;1517908;77;727;-56
2022/06/29 11:01:37;;;;;;;;;;;26.50;48.70;;;;;;1521816;76;669;-57
2022/06/29 11:03:39;;;;;;;;;;;26.50;48.70;;;;;;1516701;77;685;-56
2022/06/29 11:12:26;;;;;;;;;;;26.40;48.80;;;;;;1489874;78;1613;-56
2022/06/29 11:16:48;;;;;;;;;;;26.50;48.80;;;;;;1505569;77;1637;-57
2022/06/29 11:18:51;;;;;;;;;;;26.50;48.90;;;;;;1512117;77;679;-56
2022/06/29 11:20:53;;;;;;;;;;;26.50;48.90;;;;;;1508242;77;2049;-55
2022/06/29 11:22:56;;;;;;;;;;;26.50;48.90;;;;;;1508336;77;1518;-55
2022/06/29 11:24:59;;;;;;;;;;;26.50;48.90;;;;;;1511306;77;745;-57
2022/06/29 11:27:01;;;;;;;;;;;26.50;49.00;;;;;;1511153;77;1248;-56
2022/06/29 11:29:03;;;;;;;;;;;26.40;48.90;;;;;;1509864;77;802;-58
2022/06/29 11:31:05;;;;;;;;;;;26.50;48.90;;;;;;1507737;77;1907;-58
2022/06/29 11:33:10;;;;;;;;;;;26.40;48.90;;;;;;1508227;77;677;-57
2022/06/29 11:35:12;;;;;;;;;;;26.50;48.90;;;;;;1510803;77;1672;-54
2022/06/29 11:37:14;;;;;;;;;;;26.50;48.90;;;;;;1512430;77;1621;-57
2022/06/29 11:39:16;;;;;;;;;;;26.50;48.90;;;;;;1509052;77;734;-57
2022/06/29 11:43:03;;;;;;;;;;;26.60;48.90;;;;;;1511401;77;763;-57
2022/06/29 11:43:31;;;;;;;;;;;26.50;48.90;;;;;;1505337;77;1459;-57
2022/06/29 11:45:40;;;;;;;;;;;26.50;48.90;;;;;;1510824;77;741;-57
2022/06/29 11:47:53;;;;;;;;;;;26.60;49.00;;;;;;1508867;77;1824;-57
2022/06/29 11:49:55;;;;;;;;;;;26.50;49.00;;;;;;1508250;77;1484;-57
2022/06/29 11:51:57;;;;;;;;;;;26.40;49.00;;;;;;1510819;77;1941;-57
2022/06/29 11:54:01;;;;;;;;;;;26.50;49.00;;;;;;1510522;77;678;-56
2022/06/29 11:56:04;;;;;;;;;;;26.50;49.00;;;;;;1509587;77;1671;-58
2022/06/29 11:58:08;;;;;;;;;;;26.50;49.10;;;;;;1508976;77;1953;-59
2022/06/29 12:00:11;;;;;;;;;;;26.50;49.10;;;;;;1506099;77;724;-58
2022/06/29 12:02:14;;;;;;;;;;;26.60;49.10;;;;;;1510021;76;735;-57
2022/06/29 12:04:18;;;;;;;;;;;26.60;49.00;;;;;;1506754;77;662;-59
2022/06/29 12:06:21;;;;;;;;;;;26.60;48.90;;;;;;1510536;77;1863;-57
2022/06/29 12:08:23;;;;;;;;;;;26.50;48.80;;;;;;1513442;77;667;-58
2022/06/29 12:10:25;;;;;;;;;;;26.60;48.60;;;;;;1514131;77;1941;-56
2022/06/29 12:12:27;;;;;;;;;;;26.60;48.60;;;;;;1508008;76;880;-57
2022/06/29 12:14:29;;;;;;;;;;;26.50;48.50;;;;;;1516293;76;772;-58
2022/06/29 12:16:31;;;;;;;;;;;26.60;48.40;;;;;;1510777;77;1132;-59
2022/06/29 12:18:33;;;;;;;;;;;26.60;48.40;;;;;;1507074;77;674;-58
2022/06/29 12:20:35;;;;;;;;;;;26.60;48.40;;;;;;1506940;77;1513;-59
2022/06/29 12:22:37;;;;;;;;;;;26.60;48.40;;;;;;1523588;77;683;-57
2022/06/29 12:24:39;;;;;;;;;;;26.60;48.30;;;;;;1507597;77;683;-59
2022/06/29 12:26:41;;;;;;;;;;;26.60;48.30;;;;;;1516375;77;1157;-58
2022/06/29 12:28:43;;;;;;;;;;;26.60;48.30;;;;;;1524608;77;762;-59
2022/06/29 12:30:44;;;;;;;;;;;26.60;48.10;;;;;;1531242;77;1932;-56
2022/06/29 12:32:46;;;;;;;;;;;26.60;48.10;;;;;;1493829;78;1591;-56
2022/06/29 12:34:48;;;;;;;;;;;26.60;48.00;;;;;;1513399;77;721;-57
2022/06/29 12:36:51;;;;;;;;;;;26.70;47.80;;;;;;1512435;77;1231;-57